Time;durP1;ratioP1;P1;durP2;ratioP2;P2;SDS_P1;SDS_P2;PMS_P1;PMS_P2;Temp;Humidity;BMP_temperature;BMP_pressure;BME280_temperature;BME280_humidity;BME280_pressure;Samples;Min_cycle;Max_cycle;Signal;HPM_P1;HPM_P2
2021/05/08 00:00:52;;;;;;;8.75;3.97;;;7.80;64.50;;;;;;5111505;28;20422;-74
2021/05/08 00:03:18;;;;;;;14.95;10.00;;;7.80;64.60;;;;;;5116146;27;20385;-74
2021/05/08 00:05:44;;;;;;;11.43;8.60;;;7.80;64.80;;;;;;5120653;27;20031;-74
2021/05/08 00:08:09;;;;;;;9.07;5.65;;;7.70;64.60;;;;;;5123944;27;20070;-73
2021/05/08 00:10:35;;;;;;;7.10;4.00;;;7.70;64.60;;;;;;5112681;28;20042;-74
2021/05/08 00:13:01;;;;;;;5.18;3.90;;;7.70;64.60;;;;;;5120103;28;20019;-74
2021/05/08 00:15:26;;;;;;;6.05;3.75;;;7.70;64.50;;;;;;5131967;27;20053;-73
2021/05/08 00:17:52;;;;;;;5.03;3.70;;;7.60;64.50;;;;;;5135260;27;20030;-74
2021/05/08 00:20:18;;;;;;;4.85;3.83;;;7.60;64.70;;;;;;5153855;27;20033;-74
2021/05/08 00:22:44;;;;;;;5.35;3.90;;;7.50;65.00;;;;;;5137135;27;20027;-74
2021/05/08 00:25:11;;;;;;;7.03;4.40;;;7.50;65.10;;;;;;5114306;28;20019;-74
2021/05/08 00:27:37;;;;;;;8.05;4.35;;;7.50;65.30;;;;;;5133077;28;20027;-74
2021/05/08 00:30:05;;;;;;;7.40;4.80;;;7.50;65.50;;;;;;5133071;28;20054;-74
2021/05/08 00:32:30;;;;;;;6.93;4.43;;;7.50;66.00;;;;;;5134821;27;20027;-74
2021/05/08 00:34:56;;;;;;;8.52;4.40;;;7.50;66.30;;;;;;5120760;27;20023;-74
2021/05/08 00:37:22;;;;;;;6.55;4.18;;;7.50;66.50;;;;;;5132631;28;20445;-74
2021/05/08 00:39:47;;;;;;;5.53;4.30;;;7.50;66.70;;;;;;5144111;27;20072;-74
2021/05/08 00:42:13;;;;;;;6.88;5.15;;;7.50;66.80;;;;;;5155526;27;20384;-73
2021/05/08 00:44:39;;;;;;;10.18;5.25;;;7.50;66.90;;;;;;5120785;27;20108;-73
2021/05/08 00:47:05;;;;;;;7.35;4.68;;;7.50;66.90;;;;;;5118562;27;20105;-73
2021/05/08 00:49:31;;;;;;;9.25;4.30;;;7.60;67.10;;;;;;5117700;27;20031;-73
2021/05/08 00:51:59;;;;;;;8.45;4.93;;;7.50;67.10;;;;;;5118103;27;20027;-73
2021/05/08 00:54:25;;;;;;;8.95;4.45;;;7.50;67.60;;;;;;5118423;27;20025;-73
2021/05/08 00:56:51;;;;;;;5.13;4.22;;;7.50;67.00;;;;;;5136843;27;20019;-74
2021/05/08 00:59:17;;;;;;;5.03;3.67;;;7.50;66.90;;;;;;5136657;27;20027;-73
2021/05/08 01:01:44;;;;;;;6.25;3.85;;;7.50;66.70;;;;;;5136087;27;20023;-73
2021/05/08 01:04:10;;;;;;;4.90;3.55;;;7.50;66.20;;;;;;5137410;27;20023;-73
2021/05/08 01:06:38;;;;;;;7.22;4.35;;;7.50;65.90;;;;;;5136642;27;20030;-74
2021/05/08 01:09:04;;;;;;;4.25;3.10;;;7.50;65.60;;;;;;5136550;27;20019;-73
2021/05/08 01:11:30;;;;;;;4.68;3.13;;;7.50;65.40;;;;;;5151013;27;20026;-74
2021/05/08 01:13:56;;;;;;;7.18;3.58;;;7.40;65.20;;;;;;5157219;27;20030;-74
2021/05/08 01:16:22;;;;;;;3.72;3.00;;;7.30;65.00;;;;;;5157199;27;20047;-74
2021/05/08 01:18:51;;;;;;;4.43;3.42;;;7.30;65.00;;;;;;5138572;27;20032;-73
2021/05/08 01:21:20;;;;;;;7.00;3.60;;;7.30;65.10;;;;;;5151141;27;20025;-73
2021/05/08 01:23:47;;;;;;;5.32;3.65;;;7.20;65.00;;;;;;5128319;27;20059;-74
2021/05/08 01:26:13;;;;;;;4.75;3.40;;;7.10;65.00;;;;;;5136232;27;20050;-74
2021/05/08 01:28:40;;;;;;;5.10;3.65;;;7.10;65.10;;;;;;5136522;27;20088;-73
2021/05/08 01:31:07;;;;;;;7.05;4.75;;;7.10;65.20;;;;;;5136922;27;20084;-73
2021/05/08 01:33:33;;;;;;;7.10;4.28;;;7.00;65.20;;;;;;5136673;27;20014;-73
2021/05/08 01:35:59;;;;;;;5.38;3.72;;;7.00;65.30;;;;;;5127179;27;20111;-74
2021/05/08 01:38:25;;;;;;;38.13;17.17;;;6.90;65.30;;;;;;5138736;27;20504;-73
2021/05/08 01:40:59;;;;;;;40.03;17.40;;;6.90;65.40;;;;;;5148913;27;20033;-73
2021/05/08 01:43:25;;;;;;;16.70;8.07;;;6.90;65.40;;;;;;5157573;27;20061;-73
2021/05/08 01:45:51;;;;;;;9.02;5.03;;;6.90;65.40;;;;;;5157477;27;20038;-73
2021/05/08 01:48:17;;;;;;;6.03;3.75;;;6.80;65.40;;;;;;5144145;27;20023;-73
2021/05/08 01:50:42;;;;;;;4.47;3.15;;;6.80;65.40;;;;;;5118125;27;20388;-74
2021/05/08 01:53:08;;;;;;;5.15;3.08;;;6.80;65.50;;;;;;5116663;27;20035;-73
2021/05/08 01:55:34;;;;;;;4.47;3.70;;;6.70;65.40;;;;;;5116114;28;20020;-73
2021/05/08 01:58:00;;;;;;;5.75;3.47;;;6.70;65.50;;;;;;5115987;28;20493;-73
2021/05/08 02:00:34;;;;;;;4.93;3.25;;;6.70;65.60;;;;;;5149744;27;20045;-74
2021/05/08 02:03:01;;;;;;;4.45;3.30;;;6.60;65.60;;;;;;5157202;27;20026;-73
2021/05/08 02:05:30;;;;;;;4.65;2.50;;;6.60;65.50;;;;;;5144655;27;20041;-73
2021/05/08 02:07:59;;;;;;;6.75;2.97;;;6.60;65.60;;;;;;5136462;27;20023;-73
2021/05/08 02:10:25;;;;;;;6.85;3.58;;;6.60;65.70;;;;;;5136142;27;20022;-73
2021/05/08 02:12:50;;;;;;;6.15;3.30;;;6.60;65.80;;;;;;5136170;27;20468;-73
2021/05/08 02:15:18;;;;;;;5.40;3.45;;;6.60;65.90;;;;;;5117620;27;20468;-73
2021/05/08 02:17:45;;;;;;;4.35;3.05;;;6.60;65.90;;;;;;5136029;27;20043;-74
2021/05/08 02:20:22;;;;;;;7.93;3.55;;;6.60;65.90;;;;;;5117657;27;20414;-73
2021/05/08 02:22:48;;;;;;;4.82;3.10;;;6.60;65.90;;;;;;5140432;27;20027;-73
2021/05/08 02:25:14;;;;;;;7.72;3.92;;;6.50;65.90;;;;;;5136029;27;20027;-73
2021/05/08 02:27:41;;;;;;;5.95;4.30;;;6.50;66.10;;;;;;5135705;27;20027;-73
2021/05/08 02:30:10;;;;;;;4.70;3.55;;;6.50;66.20;;;;;;5136132;27;20139;-73
2021/05/08 02:32:36;;;;;;;5.03;3.45;;;6.50;66.30;;;;;;5116728;27;20027;-73
2021/05/08 02:35:04;;;;;;;4.40;3.33;;;6.50;66.30;;;;;;5135823;27;20094;-73
2021/05/08 02:37:29;;;;;;;4.72;3.40;;;6.50;66.30;;;;;;5135668;27;20020;-73
2021/05/08 02:39:55;;;;;;;5.03;3.50;;;6.50;66.20;;;;;;5135069;27;20019;-73
2021/05/08 02:42:21;;;;;;;5.60;4.30;;;6.50;66.20;;;;;;5116845;27;20039;-73
2021/05/08 02:44:47;;;;;;;4.72;3.38;;;6.50;66.20;;;;;;5135588;27;20030;-73
2021/05/08 02:47:19;;;;;;;5.38;3.50;;;6.40;66.20;;;;;;5135523;27;20480;-73
2021/05/08 02:49:49;;;;;;;5.50;3.75;;;6.40;66.20;;;;;;5135435;27;20019;-73
2021/05/08 02:52:15;;;;;;;3.97;3.05;;;6.40;66.20;;;;;;5113981;27;20115;-73
2021/05/08 02:54:42;;;;;;;4.18;2.58;;;6.40;66.10;;;;;;5116737;27;20034;-73
2021/05/08 02:57:08;;;;;;;4.50;2.97;;;6.40;66.10;;;;;;5135313;27;20019;-73
2021/05/08 02:59:34;;;;;;;4.35;3.38;;;6.30;66.10;;;;;;5134021;27;20095;-73
2021/05/08 03:02:00;;;;;;;3.60;2.90;;;6.30;66.20;;;;;;5132508;27;20027;-73
2021/05/08 03:04:27;;;;;;;5.07;3.33;;;6.40;66.20;;;;;;5116314;27;20113;-73
2021/05/08 03:06:52;;;;;;;5.05;3.13;;;6.30;66.10;;;;;;5135059;27;20038;-73
2021/05/08 03:09:18;;;;;;;6.88;4.47;;;6.30;66.20;;;;;;5134958;27;20504;-73
2021/05/08 03:11:44;;;;;;;4.53;3.17;;;6.30;66.10;;;;;;5135025;27;20047;-73
2021/05/08 03:14:10;;;;;;;4.90;3.30;;;6.30;66.10;;;;;;5134909;27;20103;-73
2021/05/08 03:16:39;;;;;;;3.90;3.08;;;6.20;66.10;;;;;;5116282;27;20055;-73
2021/05/08 03:19:05;;;;;;;4.85;3.42;;;6.30;66.20;;;;;;5116523;27;20094;-73
2021/05/08 03:21:32;;;;;;;4.00;3.30;;;6.20;66.30;;;;;;5114947;27;20560;-73
2021/05/08 03:23:59;;;;;;;4.55;3.38;;;6.20;66.30;;;;;;5135509;27;20023;-73
2021/05/08 03:26:25;;;;;;;4.13;3.15;;;6.20;66.40;;;;;;5155456;27;20439;-73
2021/05/08 03:28:51;;;;;;;4.47;3.05;;;6.10;66.40;;;;;;5133765;27;20091;-73
2021/05/08 03:31:18;;;;;;;4.88;2.75;;;6.20;66.60;;;;;;5134485;27;20043;-73
2021/05/08 03:33:44;;;;;;;4.68;3.42;;;6.20;66.50;;;;;;5134510;27;20019;-73
2021/05/08 03:36:12;;;;;;;5.45;3.75;;;6.10;66.60;;;;;;5134551;27;20490;-73
2021/05/08 03:38:38;;;;;;;6.00;4.03;;;6.10;66.80;;;;;;5134547;27;20030;-73
2021/05/08 03:41:04;;;;;;;4.80;3.58;;;6.10;66.80;;;;;;5147418;27;20375;-73
2021/05/08 03:43:31;;;;;;;5.50;3.20;;;6.10;66.80;;;;;;5137033;27;20030;-73
2021/05/08 03:45:58;;;;;;;7.00;3.17;;;6.10;66.80;;;;;;5134480;27;20047;-73
2021/05/08 03:48:24;;;;;;;5.60;3.75;;;6.20;66.90;;;;;;5134364;27;20019;-73
2021/05/08 03:50:50;;;;;;;5.38;3.38;;;6.20;66.90;;;;;;5133792;27;20027;-73
2021/05/08 03:53:16;;;;;;;3.85;3.00;;;6.20;66.90;;;;;;5133243;27;20476;-73
2021/05/08 03:55:43;;;;;;;5.03;3.33;;;6.20;66.90;;;;;;5116327;27;20095;-73
2021/05/08 03:58:09;;;;;;;4.15;3.20;;;6.10;66.90;;;;;;5134148;27;20057;-73
2021/05/08 04:00:35;;;;;;;5.57;3.85;;;6.20;67.10;;;;;;5133874;27;20027;-73
2021/05/08 04:03:00;;;;;;;5.65;3.78;;;6.20;67.90;;;;;;5115677;28;20440;-73
2021/05/08 04:05:27;;;;;;;5.45;3.75;;;6.20;67.30;;;;;;5133747;27;20070;-73
2021/05/08 04:07:53;;;;;;;12.30;3.55;;;6.20;67.50;;;;;;5134084;27;20030;-73
2021/05/08 04:10:19;;;;;;;4.10;3.00;;;6.30;67.60;;;;;;5134314;27;20019;-73
2021/05/08 04:12:45;;;;;;;5.05;3.25;;;6.30;67.70;;;;;;5129047;27;20055;-73
2021/05/08 04:15:11;;;;;;;6.15;3.65;;;6.30;67.70;;;;;;5117810;27;20103;-73
2021/05/08 04:17:37;;;;;;;5.85;3.90;;;6.40;68.00;;;;;;5133199;27;20118;-73
2021/05/08 04:20:04;;;;;;;5.47;3.78;;;6.40;68.10;;;;;;5115586;28;20399;-73
2021/05/08 04:22:29;;;;;;;7.32;4.35;;;6.50;68.20;;;;;;5132797;28;20027;-73
2021/05/08 04:24:55;;;;;;;5.05;4.10;;;6.50;68.30;;;;;;5135246;27;20118;-73
2021/05/08 04:27:21;;;;;;;9.25;5.70;;;6.60;68.40;;;;;;5154573;27;20033;-72
2021/05/08 04:29:47;;;;;;;11.23;6.10;;;6.60;68.50;;;;;;5146684;27;20027;-73
2021/05/08 04:32:13;;;;;;;26.25;8.55;;;6.70;68.70;;;;;;5133798;28;20027;-72
2021/05/08 04:34:38;;;;;;;23.38;9.88;;;6.80;68.90;;;;;;5133833;28;20537;-73
2021/05/08 04:37:04;;;;;;;24.20;8.05;;;6.80;69.00;;;;;;5145198;27;20019;-73
2021/05/08 04:39:30;;;;;;;21.05;7.53;;;6.90;69.00;;;;;;5113217;28;20034;-73
2021/05/08 04:41:56;;;;;;;15.82;7.32;;;6.90;69.00;;;;;;5113235;28;20024;-73
2021/05/08 04:44:23;;;;;;;12.82;5.75;;;7.00;69.00;;;;;;5113249;28;20063;-73
2021/05/08 04:46:49;;;;;;;13.07;6.45;;;7.10;69.00;;;;;;5100234;28;20042;-72
2021/05/08 04:49:15;;;;;;;12.35;6.72;;;7.10;69.00;;;;;;5143527;27;20515;-73
2021/05/08 04:51:41;;;;;;;16.85;6.28;;;7.10;68.90;;;;;;5130870;28;20015;-73
2021/05/08 04:54:07;;;;;;;8.02;4.95;;;7.20;68.90;;;;;;5133554;28;20042;-73
2021/05/08 04:56:33;;;;;;;13.25;5.32;;;7.20;68.80;;;;;;5133617;27;20026;-73
2021/05/08 04:58:59;;;;;;;8.20;5.55;;;7.30;68.90;;;;;;5115235;28;20112;-73
2021/05/08 05:01:25;;;;;;;13.18;5.25;;;7.30;68.80;;;;;;5115129;28;20023;-73
2021/05/08 05:03:51;;;;;;;10.93;6.15;;;7.40;68.80;;;;;;5133148;28;20023;-73
2021/05/08 05:06:17;;;;;;;7.88;5.15;;;7.40;68.70;;;;;;5140710;27;20525;-73
2021/05/08 05:08:43;;;;;;;14.15;6.93;;;7.50;68.70;;;;;;5154105;27;20207;-73
2021/05/08 05:11:09;;;;;;;13.27;5.93;;;7.50;68.70;;;;;;5154126;27;20019;-73
2021/05/08 05:13:35;;;;;;;8.80;4.68;;;7.60;68.80;;;;;;5137322;27;20084;-73
2021/05/08 05:16:00;;;;;;;8.82;5.65;;;7.60;68.70;;;;;;5133173;28;20055;-73
2021/05/08 05:18:30;;;;;;;10.13;5.45;;;7.70;68.80;;;;;;5114955;28;20432;-73
2021/05/08 05:20:56;;;;;;;12.25;4.85;;;7.70;68.80;;;;;;5132876;28;20098;-73
2021/05/08 05:23:21;;;;;;;6.80;4.35;;;7.70;68.60;;;;;;5132682;28;20059;-73
2021/05/08 05:25:48;;;;;;;7.28;4.70;;;7.80;68.50;;;;;;5114816;28;20038;-72
2021/05/08 05:28:25;;;;;;;12.05;5.93;;;7.90;68.50;;;;;;5134290;27;20031;-73
2021/05/08 05:30:51;;;;;;;6.45;4.78;;;7.90;68.50;;;;;;5136962;27;20053;-72
2021/05/08 05:33:17;;;;;;;9.02;5.90;;;8.00;68.40;;;;;;5137091;27;20027;-72
2021/05/08 05:35:43;;;;;;;6.68;4.70;;;8.00;68.30;;;;;;5136828;27;20026;-72
2021/05/08 05:38:09;;;;;;;7.18;5.10;;;8.00;68.30;;;;;;5136895;27;20379;-73
2021/05/08 05:40:35;;;;;;;9.50;5.28;;;8.10;68.40;;;;;;5136808;27;20023;-72
2021/05/08 05:43:01;;;;;;;9.40;4.63;;;8.20;68.40;;;;;;5136643;27;20042;-72
2021/05/08 05:45:26;;;;;;;9.13;5.30;;;8.20;68.30;;;;;;5136361;27;20030;-72
2021/05/08 05:48:04;;;;;;;7.13;4.38;;;8.30;68.30;;;;;;5136631;27;20027;-72
2021/05/08 05:50:30;;;;;;;12.10;5.15;;;8.30;68.20;;;;;;5136708;27;20380;-73
2021/05/08 05:52:56;;;;;;;6.65;5.30;;;8.40;68.20;;;;;;5128909;27;20113;-72
2021/05/08 05:55:25;;;;;;;9.73;5.57;;;8.40;68.10;;;;;;5157218;27;20047;-73
2021/05/08 05:57:54;;;;;;;7.13;4.35;;;8.50;68.00;;;;;;5157156;27;20015;-73
2021/05/08 06:00:21;;;;;;;7.05;4.35;;;8.50;68.00;;;;;;5134253;27;20019;-72
2021/05/08 06:02:47;;;;;;;6.43;4.60;;;8.60;68.00;;;;;;5128590;27;20422;-73
2021/05/08 06:05:13;;;;;;;10.27;4.53;;;8.70;68.20;;;;;;5115799;28;20055;-72
2021/05/08 06:07:39;;;;;;;7.30;4.75;;;8.80;68.20;;;;;;5130142;27;20050;-72
2021/05/08 06:10:07;;;;;;;6.35;4.28;;;8.80;68.00;;;;;;5117420;27;20027;-72
2021/05/08 06:12:33;;;;;;;8.75;4.85;;;8.90;68.10;;;;;;5141638;27;20027;-72
2021/05/08 06:14:59;;;;;;;9.32;6.40;;;9.00;68.20;;;;;;5156814;27;20162;-72
2021/05/08 06:17:25;;;;;;;9.45;5.50;;;9.10;68.00;;;;;;5156626;27;20043;-72
2021/05/08 06:19:51;;;;;;;12.05;6.88;;;9.10;67.60;;;;;;5138203;27;20143;-72
2021/05/08 06:22:16;;;;;;;12.70;6.70;;;9.20;67.40;;;;;;5132541;27;20083;-72
2021/05/08 06:24:42;;;;;;;12.05;6.80;;;9.30;67.40;;;;;;5131466;27;20027;-72
2021/05/08 06:27:08;;;;;;;13.57;7.43;;;9.40;67.50;;;;;;5116575;27;20020;-72
2021/05/08 06:29:36;;;;;;;18.05;8.57;;;9.50;67.50;;;;;;5148599;27;20023;-72
2021/05/08 06:32:02;;;;;;;21.35;9.20;;;9.60;66.90;;;;;;5135738;27;20022;-72
2021/05/08 06:34:28;;;;;;;12.57;6.90;;;9.60;65.80;;;;;;5111232;27;20038;-72
2021/05/08 06:36:53;;;;;;;13.77;7.05;;;9.70;65.70;;;;;;5135724;27;20031;-72
2021/05/08 06:39:19;;;;;;;13.05;6.68;;;9.80;65.90;;;;;;5136961;27;20500;-72
2021/05/08 06:41:45;;;;;;;14.60;7.40;;;9.90;65.90;;;;;;5136461;27;20035;-72
2021/05/08 06:44:11;;;;;;;21.23;8.50;;;9.90;65.90;;;;;;5117182;27;20023;-72
2021/05/08 06:46:36;;;;;;;21.42;8.93;;;10.00;65.70;;;;;;5111811;27;20127;-72
2021/05/08 06:49:02;;;;;;;14.75;8.20;;;10.10;65.30;;;;;;5135154;27;20034;-72
2021/05/08 06:51:29;;;;;;;18.00;9.23;;;10.10;64.90;;;;;;5131514;27;20377;-72
2021/05/08 06:53:55;;;;;;;15.55;9.02;;;10.20;64.50;;;;;;5114726;28;20026;-72
2021/05/08 06:56:20;;;;;;;17.95;9.13;;;10.30;64.40;;;;;;5113752;27;20018;-72
2021/05/08 06:58:46;;;;;;;15.40;8.82;;;10.40;64.60;;;;;;5155921;27;20023;-72
2021/05/08 07:01:12;;;;;;;15.38;8.27;;;10.40;64.30;;;;;;5145834;27;20108;-72
2021/05/08 07:03:37;;;;;;;21.27;10.57;;;10.50;64.60;;;;;;5125083;27;20088;-72
2021/05/08 07:06:03;;;;;;;20.05;10.65;;;10.60;64.70;;;;;;5135360;27;20048;-72
2021/05/08 07:08:29;;;;;;;27.08;12.18;;;10.60;64.60;;;;;;5134781;27;20019;-72
2021/05/08 07:10:55;;;;;;;20.27;11.18;;;10.70;64.00;;;;;;5133839;27;20034;-72
2021/05/08 07:13:21;;;;;;;20.15;11.85;;;10.80;63.70;;;;;;5114287;28;20031;-72
2021/05/08 07:15:47;;;;;;;18.20;11.00;;;10.90;63.90;;;;;;5124634;27;20552;-72
2021/05/08 07:18:13;;;;;;;18.30;11.93;;;10.90;63.90;;;;;;5119833;27;20023;-72
2021/05/08 07:20:40;;;;;;;18.38;12.18;;;11.00;63.60;;;;;;5114289;28;20075;-72
2021/05/08 07:23:07;;;;;;;20.98;14.10;;;11.10;64.40;;;;;;5133792;27;20103;-72
2021/05/08 07:25:37;;;;;;;21.42;14.07;;;11.20;63.20;;;;;;5120852;27;20037;-72
2021/05/08 07:28:13;;;;;;;22.77;13.43;;;11.20;63.30;;;;;;5115854;27;20030;-72
2021/05/08 07:30:40;;;;;;;24.13;12.65;;;11.30;62.70;;;;;;5134574;27;20127;-72
2021/05/08 07:33:06;;;;;;;15.05;11.73;;;11.40;62.30;;;;;;5133947;27;20481;-72
2021/05/08 07:35:32;;;;;;;16.25;11.88;;;11.50;62.20;;;;;;5134524;27;20027;-72
2021/05/08 07:37:58;;;;;;;20.80;13.27;;;11.50;61.40;;;;;;5139310;27;20027;-72
2021/05/08 07:40:23;;;;;;;18.42;12.55;;;11.60;61.30;;;;;;5146629;27;20038;-72
2021/05/08 07:42:49;;;;;;;19.17;11.50;;;11.70;61.00;;;;;;5135112;27;20039;-72
2021/05/08 07:45:15;;;;;;;19.45;11.80;;;11.70;61.30;;;;;;5145578;27;20034;-73
2021/05/08 07:47:41;;;;;;;18.85;11.13;;;11.80;61.00;;;;;;5134345;27;20019;-72
2021/05/08 07:50:08;;;;;;;18.40;12.73;;;11.90;60.80;;;;;;5117903;27;20333;-72
2021/05/08 07:52:34;;;;;;;16.75;10.75;;;12.00;59.90;;;;;;5125127;27;20384;-72
2021/05/08 07:55:00;;;;;;;14.38;10.52;;;12.00;59.80;;;;;;5113764;28;20069;-72
2021/05/08 07:57:26;;;;;;;25.10;10.55;;;12.10;59.50;;;;;;5134228;27;20023;-72
2021/05/08 07:59:52;;;;;;;14.38;9.38;;;12.20;60.00;;;;;;5154449;27;20019;-72
2021/05/08 08:02:18;;;;;;;22.20;8.73;;;12.30;59.70;;;;;;5146328;27;20021;-72
2021/05/08 08:04:43;;;;;;;15.50;9.55;;;12.40;59.30;;;;;;5134081;27;20422;-72
2021/05/08 08:07:09;;;;;;;11.32;7.45;;;12.40;58.90;;;;;;5133948;27;20068;-72
2021/05/08 08:09:35;;;;;;;12.15;8.07;;;12.50;59.30;;;;;;5134057;27;20466;-72
2021/05/08 08:12:00;;;;;;;15.38;8.20;;;12.60;59.20;;;;;;5133852;27;20076;-72
2021/05/08 08:14:26;;;;;;;12.65;7.80;;;12.60;59.30;;;;;;5133678;27;20023;-72
2021/05/08 08:16:52;;;;;;;15.88;7.32;;;12.70;59.40;;;;;;5145388;27;20038;-72
2021/05/08 08:19:18;;;;;;;12.05;8.00;;;12.80;59.30;;;;;;5150652;27;20069;-73
2021/05/08 08:21:44;;;;;;;15.15;11.48;;;12.90;58.60;;;;;;5154591;27;20023;-72
2021/05/08 08:24:10;;;;;;;13.45;9.00;;;13.00;58.50;;;;;;5146420;27;20019;-72
2021/05/08 08:26:36;;;;;;;11.32;7.57;;;13.00;57.70;;;;;;5133682;28;20506;-72
2021/05/08 08:29:03;;;;;;;9.90;5.85;;;13.10;57.90;;;;;;5133723;28;20023;-72
2021/05/08 08:31:29;;;;;;;9.95;6.47;;;13.20;58.40;;;;;;5115241;28;20031;-72
2021/05/08 08:33:54;;;;;;;10.35;6.78;;;13.20;58.10;;;;;;5115073;28;20030;-72
2021/05/08 08:36:20;;;;;;;10.15;6.97;;;13.30;57.10;;;;;;5151171;27;20023;-72
2021/05/08 08:38:46;;;;;;;10.85;6.32;;;13.40;56.50;;;;;;5135776;27;20054;-73
2021/05/08 08:41:12;;;;;;;11.55;6.60;;;13.40;55.80;;;;;;5154276;27;20015;-72
2021/05/08 08:43:38;;;;;;;9.38;5.40;;;13.50;55.30;;;;;;5154192;27;20022;-72
2021/05/08 08:46:05;;;;;;;8.95;4.72;;;13.50;54.80;;;;;;5135694;27;20110;-72
2021/05/08 08:48:31;;;;;;;6.10;4.20;;;13.60;56.10;;;;;;5141826;27;20058;-72
2021/05/08 08:50:57;;;;;;;8.65;4.80;;;13.60;56.10;;;;;;5133568;28;20024;-72
2021/05/08 08:53:23;;;;;;;9.70;5.30;;;13.70;54.80;;;;;;5133367;27;20096;-72
2021/05/08 08:55:55;;;;;;;8.15;4.97;;;13.80;55.00;;;;;;5133479;28;20421;-72
2021/05/08 08:58:33;;;;;;;11.25;5.60;;;13.80;55.10;;;;;;5133509;28;20372;-72
2021/05/08 09:01:00;;;;;;;8.60;5.90;;;13.90;54.70;;;;;;5133432;28;20015;-72
2021/05/08 09:03:26;;;;;;;11.85;4.60;;;13.90;53.10;;;;;;5135495;27;20027;-72
2021/05/08 09:05:52;;;;;;;7.68;4.88;;;14.00;53.30;;;;;;5137251;27;20362;-72
2021/05/08 09:08:18;;;;;;;6.93;3.75;;;14.00;52.40;;;;;;5118826;27;20046;-72
2021/05/08 09:10:44;;;;;;;6.28;3.80;;;14.00;53.10;;;;;;5137214;27;20027;-72
2021/05/08 09:13:20;;;;;;;5.75;3.58;;;14.10;53.30;;;;;;5137150;27;20023;-71
2021/05/08 09:15:48;;;;;;;9.20;4.57;;;14.20;54.30;;;;;;5136905;27;20039;-72
2021/05/08 09:18:35;;;;;;;8.80;4.45;;;14.30;52.90;;;;;;5127963;27;20024;-72
2021/05/08 09:21:02;;;;;;;5.70;3.67;;;14.30;51.00;;;;;;5116775;28;20451;-72
2021/05/08 09:23:32;;;;;;;12.90;4.18;;;14.40;50.70;;;;;;5111923;27;20360;-72
2021/05/08 09:26:04;;;;;;;5.20;3.72;;;14.40;49.40;;;;;;5118497;27;20479;-72
2021/05/08 09:28:31;;;;;;;6.55;3.22;;;14.40;50.60;;;;;;5137075;27;20030;-72
2021/05/08 09:30:58;;;;;;;7.72;3.33;;;14.50;51.70;;;;;;5136975;27;20099;-72
2021/05/08 09:33:28;;;;;;;6.65;3.53;;;14.50;49.50;;;;;;5136640;27;20019;-72
2021/05/08 09:35:58;;;;;;;6.97;3.45;;;14.50;49.90;;;;;;5134419;27;20060;-72
2021/05/08 09:38:31;;;;;;;6.97;3.40;;;14.60;49.90;;;;;;5136155;27;20011;-72
2021/05/08 09:40:57;;;;;;;7.03;3.43;;;14.70;48.10;;;;;;5134312;27;20029;-73
2021/05/08 09:43:23;;;;;;;8.73;3.95;;;14.70;49.70;;;;;;5135675;27;20432;-72
2021/05/08 09:45:53;;;;;;;8.48;3.55;;;14.80;47.80;;;;;;5134671;27;20031;-72
2021/05/08 09:48:26;;;;;;;3.83;2.95;;;14.80;46.40;;;;;;5126284;27;20103;-72
2021/05/08 09:50:53;;;;;;;6.10;2.50;;;14.90;48.70;;;;;;5115257;28;20027;-72
2021/05/08 09:53:44;;;;;;;9.32;2.60;;;14.90;49.00;;;;;;5115013;28;20273;-72
2021/05/08 09:56:32;;;;;;;3.50;2.60;;;15.00;47.50;;;;;;5096390;28;20035;-72
2021/05/08 09:59:21;;;;;;;3.67;2.42;;;15.10;47.00;;;;;;5115184;28;20016;-72
2021/05/08 10:01:49;;;;;;;4.10;2.97;;;15.10;47.90;;;;;;5115078;28;20073;-73
2021/05/08 10:04:33;;;;;;;4.80;2.95;;;15.10;46.50;;;;;;5096717;28;20484;-74
2021/05/08 10:07:15;;;;;;;5.18;3.40;;;15.20;47.30;;;;;;5114895;28;20035;-73
2021/05/08 10:09:52;;;;;;;7.05;2.70;;;15.20;46.30;;;;;;5096721;28;20099;-73
2021/05/08 10:12:23;;;;;;;5.78;2.90;;;15.30;45.00;;;;;;5114741;28;20024;-73
2021/05/08 10:14:54;;;;;;;4.43;2.65;;;15.30;44.80;;;;;;5113515;28;20020;-72
2021/05/08 10:17:27;;;;;;;4.60;2.70;;;15.40;45.50;;;;;;5115125;27;20111;-73
2021/05/08 10:20:00;;;;;;;3.38;2.67;;;15.50;47.10;;;;;;5134996;27;20042;-72
2021/05/08 10:22:32;;;;;;;4.00;2.65;;;15.60;47.40;;;;;;5116513;27;20068;-73
2021/05/08 10:25:02;;;;;;;5.00;2.63;;;15.70;46.80;;;;;;5135139;27;20428;-72
2021/05/08 10:27:28;;;;;;;4.53;2.63;;;15.80;45.60;;;;;;5135169;27;20102;-73
2021/05/08 10:29:55;;;;;;;5.13;3.17;;;15.90;47.40;;;;;;5135064;27;20093;-72
2021/05/08 10:32:22;;;;;;;4.22;2.38;;;16.00;44.30;;;;;;5134786;27;20376;-73
2021/05/08 10:34:59;;;;;;;6.10;2.92;;;16.10;45.00;;;;;;5134694;27;20029;-73
2021/05/08 10:37:27;;;;;;;3.22;2.33;;;16.10;46.10;;;;;;5134547;27;20026;-73
2021/05/08 10:40:13;;;;;;;10.23;2.53;;;16.20;45.20;;;;;;5115648;27;20106;-73
2021/05/08 10:42:47;;;;;;;3.90;2.50;;;16.20;45.40;;;;;;5116021;27;20388;-73
2021/05/08 10:45:16;;;;;;;5.72;2.13;;;16.30;43.20;;;;;;5134521;27;20481;-73
2021/05/08 10:47:59;;;;;;;3.92;1.98;;;16.30;43.30;;;;;;5134412;27;20380;-72
2021/05/08 10:50:47;;;;;;;7.13;2.92;;;16.30;43.80;;;;;;5138415;27;20054;-73
2021/05/08 10:53:17;;;;;;;4.43;2.38;;;16.40;43.00;;;;;;5135640;27;20062;-73
2021/05/08 10:55:43;;;;;;;4.30;2.20;;;16.40;43.70;;;;;;5133712;27;20023;-74
2021/05/08 10:58:31;;;;;;;3.70;2.10;;;16.50;42.20;;;;;;5137207;27;20373;-73
2021/05/08 11:01:05;;;;;;;3.47;2.08;;;16.50;42.10;;;;;;5135306;27;20061;-73
2021/05/08 11:03:31;;;;;;;;;;;16.50;40.40;;;;;;5115662;27;20048;-74
2021/05/08 11:06:04;;;;;;;2.72;2.25;;;16.50;43.80;;;;;;5141774;27;19914;-73
2021/05/08 11:08:30;;;;;;;2.83;2.00;;;16.60;41.30;;;;;;5145584;27;20022;-73
2021/05/08 11:11:01;;;;;;;3.83;2.08;;;16.60;40.40;;;;;;5136443;27;20031;-74
2021/05/08 11:13:43;;;;;;;4.43;2.00;;;16.60;41.10;;;;;;5154850;27;20392;-73
2021/05/08 11:16:09;;;;;;;2.83;1.55;;;16.60;42.30;;;;;;5154834;27;20038;-74
2021/05/08 11:18:44;;;;;;;3.45;1.83;;;16.70;41.90;;;;;;5124895;27;20114;-73
2021/05/08 11:21:18;;;;;;;2.47;1.63;;;16.80;41.70;;;;;;5136572;27;20072;-73
2021/05/08 11:23:51;;;;;;;2.90;2.08;;;16.90;41.20;;;;;;5114481;27;20034;-74
2021/05/08 11:28:55;;;;;;;4.13;1.73;;;17.00;38.20;;;;;;5133980;27;20080;-74
2021/05/08 11:31:27;;;;;;;3.05;1.63;;;17.10;38.30;;;;;;5133550;27;20019;-74
2021/05/08 11:34:03;;;;;;;4.05;2.50;;;17.10;38.60;;;;;;5114877;27;20080;-74
2021/05/08 11:36:28;;;;;;;2.97;1.83;;;17.20;37.80;;;;;;5133637;27;20473;-75
2021/05/08 11:39:09;;;;;;;3.05;1.70;;;17.30;40.90;;;;;;5133752;27;20161;-74
2021/05/08 11:41:35;;;;;;;2.38;1.92;;;17.40;39.70;;;;;;5126752;27;20026;-74
2021/05/08 11:44:01;;;;;;;3.28;1.80;;;17.40;40.80;;;;;;5136699;27;20027;-73
2021/05/08 11:46:32;;;;;;;4.43;1.77;;;17.50;41.80;;;;;;5133485;27;20057;-74
2021/05/08 11:48:58;;;;;;;8.65;1.80;;;17.50;39.00;;;;;;5141776;27;20026;-74
2021/05/08 11:51:24;;;;;;;3.53;1.85;;;17.60;41.60;;;;;;5133394;27;20030;-73
2021/05/08 11:54:10;;;;;;;2.95;1.60;;;17.70;38.90;;;;;;5133435;27;20034;-73
2021/05/08 11:56:36;;;;;;;3.30;2.17;;;17.80;41.20;;;;;;5117028;27;20032;-74
2021/05/08 11:59:03;;;;;;;2.00;1.50;;;17.90;39.10;;;;;;5138385;27;20406;-74
2021/05/08 12:01:30;;;;;;;2.83;1.50;;;18.00;40.10;;;;;;5133313;27;20026;-74
2021/05/08 12:04:00;;;;;;;2.40;1.60;;;18.10;40.10;;;;;;5114483;27;20019;-74
2021/05/08 12:06:26;;;;;;;2.65;1.50;;;18.20;38.30;;;;;;5140116;27;20076;-73
2021/05/08 12:08:54;;;;;;;2.63;1.58;;;18.40;38.50;;;;;;5128388;27;20034;-74
2021/05/08 12:11:20;;;;;;;2.55;1.73;;;18.40;36.00;;;;;;5133112;27;20064;-74
2021/05/08 12:13:46;;;;;;;3.15;1.60;;;18.40;36.30;;;;;;5136100;27;20027;-74
2021/05/08 12:16:13;;;;;;;3.22;1.90;;;18.50;37.20;;;;;;5133175;27;20043;-74
2021/05/08 12:18:40;;;;;;;3.60;1.98;;;18.40;36.60;;;;;;5130322;27;20026;-74
2021/05/08 12:21:07;;;;;;;3.67;2.10;;;18.40;35.70;;;;;;5133142;27;20034;-74
2021/05/08 12:23:38;;;;;;;4.95;1.88;;;18.40;35.30;;;;;;5114313;28;20089;-74
2021/05/08 12:26:09;;;;;;;2.55;1.52;;;18.40;36.50;;;;;;5133024;28;20019;-75
2021/05/08 12:29:01;;;;;;;1.80;1.40;;;18.40;38.60;;;;;;5135764;27;20050;-75
2021/05/08 12:31:32;;;;;;;2.47;1.65;;;18.50;37.50;;;;;;5122679;27;20446;-75
2021/05/08 12:34:08;;;;;;;4.93;2.38;;;18.60;37.20;;;;;;5132758;28;20031;-75
2021/05/08 12:36:35;;;;;;;3.47;2.13;;;18.70;37.10;;;;;;5132914;27;20015;-75
2021/05/08 12:39:21;;;;;;;3.97;2.60;;;18.80;36.20;;;;;;5136969;27;20058;-76
2021/05/08 12:41:57;;;;;;;2.97;2.00;;;18.80;34.10;;;;;;5157867;27;20064;-77
2021/05/08 12:44:38;;;;;;;5.45;2.40;;;18.80;34.90;;;;;;5157972;27;20027;-77
2021/05/08 12:47:16;;;;;;;4.32;2.15;;;18.90;34.70;;;;;;5139134;27;20487;-77
2021/05/08 12:50:10;;;;;;;5.70;2.53;;;18.90;34.70;;;;;;5137535;27;20031;-78
2021/05/08 12:53:02;;;;;;;3.30;2.00;;;19.00;34.30;;;;;;5139103;27;20035;-78
2021/05/08 12:55:39;;;;;;;3.25;2.08;;;19.10;37.30;;;;;;5123998;27;20039;-77